Time;durP1;ratioP1;P1;durP2;ratioP2;P2;SDS_P1;SDS_P2;PMS_P1;PMS_P2;Temp;Humidity;BMP_temperature;BMP_pressure;BME280_temperature;BME280_humidity;BME280_pressure;Samples;Min_cycle;Max_cycle;Signal;HPM_P1;HPM_P2
2023/06/15 00:00:49;;;;;;;3.50;2.60;;;17.90;75.50;;;;;;5076755;28;20028;-72
2023/06/15 00:03:18;;;;;;;4.13;2.63;;;17.90;75.60;;;;;;5076756;28;20020;-73
2023/06/15 00:05:44;;;;;;;4.05;2.80;;;17.90;75.30;;;;;;5076543;28;20434;-72
2023/06/15 00:08:10;;;;;;;3.38;2.75;;;17.90;75.80;;;;;;5076690;28;20032;-72
2023/06/15 00:10:36;;;;;;;6.82;3.10;;;17.90;75.90;;;;;;5077151;28;20027;-73
2023/06/15 00:13:02;;;;;;;4.15;2.80;;;17.90;75.60;;;;;;5077066;28;20020;-72
2023/06/15 00:15:28;;;;;;;4.10;3.00;;;17.90;75.40;;;;;;5076687;28;20357;-72
2023/06/15 00:17:54;;;;;;;4.78;3.17;;;17.90;75.80;;;;;;5076736;28;20452;-72
2023/06/15 00:20:28;;;;;;;6.55;3.33;;;17.90;75.90;;;;;;5076909;28;20327;-73
2023/06/15 00:22:55;;;;;;;;;;;17.90;76.20;;;;;;5076797;28;20442;-72
2023/06/15 00:25:22;;;;;;;8.32;4.10;;;17.80;77.50;;;;;;5076127;28;20261;-73
2023/06/15 00:27:48;;;;;;;8.65;4.15;;;17.80;76.40;;;;;;5076276;28;20438;-72
2023/06/15 00:30:14;;;;;;;6.53;4.05;;;17.80;76.70;;;;;;5076231;28;20031;-73
2023/06/15 00:32:41;;;;;;;6.13;4.28;;;17.80;76.60;;;;;;5076424;28;20434;-72
2023/06/15 00:35:07;;;;;;;9.27;4.72;;;17.80;76.70;;;;;;5075948;28;20077;-72
2023/06/15 00:37:33;;;;;;;7.18;4.15;;;17.80;76.80;;;;;;5076339;28;20078;-72
2023/06/15 00:39:59;;;;;;;5.35;3.72;;;17.80;76.80;;;;;;5058400;28;20028;-72
2023/06/15 00:42:28;;;;;;;5.93;3.67;;;17.80;76.80;;;;;;5076023;28;20096;-72
2023/06/15 00:44:54;;;;;;;6.70;3.45;;;17.80;76.60;;;;;;5076023;28;20020;-73
2023/06/15 00:47:21;;;;;;;4.47;3.22;;;17.80;76.30;;;;;;5076146;28;20404;-72
2023/06/15 00:49:47;;;;;;;5.30;3.22;;;17.80;76.20;;;;;;5075864;28;20020;-72
2023/06/15 00:52:15;;;;;;;4.90;3.30;;;17.80;76.20;;;;;;5076265;28;20338;-72
2023/06/15 00:54:43;;;;;;;4.60;3.03;;;17.80;76.00;;;;;;5075687;28;20036;-72
2023/06/15 00:57:10;;;;;;;4.75;3.33;;;17.90;76.10;;;;;;5075670;28;20028;-72
2023/06/15 00:59:39;;;;;;;4.00;3.22;;;17.90;76.20;;;;;;5075589;28;20465;-72
2023/06/15 01:02:05;;;;;;;4.80;2.97;;;17.90;76.10;;;;;;5075899;28;20028;-72
2023/06/15 01:04:31;;;;;;;5.35;3.20;;;17.90;76.20;;;;;;5075802;28;20052;-72
2023/06/15 01:07:02;;;;;;;5.05;3.30;;;17.90;76.20;;;;;;5075362;28;20029;-73
2023/06/15 01:09:36;;;;;;;4.95;3.47;;;18.00;76.10;;;;;;5075788;28;20116;-73
2023/06/15 01:12:11;;;;;;;6.30;4.10;;;17.90;76.10;;;;;;5076039;28;20058;-72
2023/06/15 01:14:38;;;;;;;8.00;3.70;;;18.00;76.40;;;;;;5076025;28;20036;-72
2023/06/15 01:17:08;;;;;;;7.55;4.25;;;18.00;76.30;;;;;;5075630;28;20154;-73
2023/06/15 01:19:37;;;;;;;5.03;3.42;;;18.00;76.70;;;;;;5075399;28;20028;-72
2023/06/15 01:22:41;;;;;;;6.03;3.63;;;17.90;76.70;;;;;;5075866;28;20342;-72
2023/06/15 01:25:29;;;;;;;4.00;2.70;;;18.00;77.00;;;;;;5038714;28;20071;-72
2023/06/15 01:28:01;;;;;;;5.80;2.90;;;18.00;76.50;;;;;;5075260;28;20028;-73
2023/06/15 01:30:33;;;;;;;3.70;2.78;;;18.00;76.60;;;;;;5075269;28;20024;-73
2023/06/15 01:33:00;;;;;;;5.68;2.72;;;17.90;76.20;;;;;;5057519;28;20024;-72
2023/06/15 01:35:26;;;;;;;3.75;2.72;;;17.90;75.90;;;;;;5074952;28;20052;-73
2023/06/15 01:37:52;;;;;;;4.13;3.22;;;17.90;76.10;;;;;;5075163;28;20067;-73
2023/06/15 01:40:18;;;;;;;3.47;2.65;;;18.00;76.10;;;;;;5075173;28;20105;-73
2023/06/15 01:42:45;;;;;;;4.40;3.15;;;18.00;75.80;;;;;;5057113;28;20089;-72
2023/06/15 01:45:13;;;;;;;4.53;3.10;;;18.00;75.90;;;;;;5075389;28;20332;-72
2023/06/15 01:47:39;;;;;;;3.67;2.50;;;18.00;75.80;;;;;;5075058;28;20073;-72
2023/06/15 01:50:07;;;;;;;4.40;2.75;;;18.00;75.80;;;;;;5075021;28;20017;-72
2023/06/15 01:52:33;;;;;;;2.95;2.58;;;18.00;76.00;;;;;;5075040;28;20022;-73
2023/06/15 01:54:59;;;;;;;3.95;2.60;;;18.00;75.80;;;;;;5074883;28;20029;-72
2023/06/15 01:57:25;;;;;;;3.65;2.72;;;18.00;75.70;;;;;;5075443;28;20028;-72
2023/06/15 01:59:54;;;;;;;3.50;2.45;;;18.00;75.70;;;;;;5075467;28;20024;-72
2023/06/15 02:02:21;;;;;;;2.60;2.30;;;18.00;75.50;;;;;;5074845;28;20040;-72
2023/06/15 02:04:47;;;;;;;3.58;2.65;;;18.00;75.50;;;;;;5075313;28;20104;-72
2023/06/15 02:07:13;;;;;;;4.07;2.67;;;18.00;75.30;;;;;;5074811;28;20027;-73
2023/06/15 02:09:39;;;;;;;4.68;2.60;;;18.00;75.40;;;;;;5074770;28;20341;-73
2023/06/15 02:12:06;;;;;;;5.47;3.13;;;18.00;75.40;;;;;;5075048;28;20095;-73
2023/06/15 02:14:32;;;;;;;3.65;2.78;;;18.00;75.60;;;;;;5075086;28;20393;-73
2023/06/15 02:16:59;;;;;;;4.30;2.83;;;18.00;75.60;;;;;;5074715;28;20453;-73
2023/06/15 02:19:27;;;;;;;3.92;2.80;;;18.00;75.60;;;;;;5074999;28;20029;-73
2023/06/15 02:21:54;;;;;;;4.53;2.75;;;18.00;75.70;;;;;;5074956;28;20051;-73
2023/06/15 02:24:21;;;;;;;4.78;2.85;;;18.00;75.70;;;;;;5057386;28;20355;-72
2023/06/15 02:26:47;;;;;;;4.47;3.00;;;17.90;75.80;;;;;;5074765;28;20071;-72
2023/06/15 02:29:14;;;;;;;3.97;2.60;;;17.90;75.70;;;;;;5074617;28;20031;-72
2023/06/15 02:31:39;;;;;;;11.45;3.72;;;17.90;75.90;;;;;;5074567;28;20093;-73
2023/06/15 02:34:06;;;;;;;6.20;3.05;;;17.90;75.90;;;;;;5074862;28;20135;-72
2023/06/15 02:36:34;;;;;;;4.50;3.25;;;17.90;76.20;;;;;;5074520;28;20047;-72
2023/06/15 02:39:01;;;;;;;5.25;3.15;;;17.90;76.30;;;;;;5074821;28;20054;-73
2023/06/15 02:41:27;;;;;;;4.70;3.00;;;17.90;76.40;;;;;;5074420;28;20469;-72
2023/06/15 02:43:53;;;;;;;5.47;3.22;;;17.90;76.30;;;;;;5074566;28;20102;-74
2023/06/15 02:46:20;;;;;;;5.13;3.03;;;17.90;76.30;;;;;;5074497;28;20033;-73
2023/06/15 02:48:51;;;;;;;6.07;3.22;;;17.90;76.40;;;;;;5074415;28;20442;-72
2023/06/15 02:51:20;;;;;;;3.90;2.60;;;17.90;76.30;;;;;;5074361;28;20032;-72
2023/06/15 02:53:47;;;;;;;3.88;3.05;;;17.90;76.30;;;;;;5074433;28;20021;-73
2023/06/15 02:56:18;;;;;;;3.55;2.90;;;17.90;76.30;;;;;;5077745;28;20103;-73
2023/06/15 02:58:47;;;;;;;4.07;3.10;;;17.90;76.40;;;;;;5078284;28;20032;-72
2023/06/15 03:01:17;;;;;;;6.22;2.92;;;17.90;76.20;;;;;;5077884;28;20090;-72
2023/06/15 03:03:43;;;;;;;3.95;2.80;;;17.90;76.10;;;;;;5077917;28;20417;-72
2023/06/15 03:06:10;;;;;;;4.05;2.70;;;17.90;76.00;;;;;;5077941;28;20033;-72
2023/06/15 03:08:38;;;;;;;4.82;2.67;;;17.90;75.90;;;;;;5078060;28;20012;-72
2023/06/15 03:11:04;;;;;;;3.72;2.78;;;17.90;75.80;;;;;;5077740;28;20039;-72
2023/06/15 03:13:30;;;;;;;3.60;2.70;;;17.90;75.80;;;;;;5078280;28;20028;-72
2023/06/15 03:15:56;;;;;;;4.10;2.47;;;17.90;75.70;;;;;;5059873;28;20032;-72
2023/06/15 03:18:22;;;;;;;2.83;2.50;;;17.90;75.60;;;;;;5078174;28;20028;-72
2023/06/15 03:20:52;;;;;;;3.42;2.40;;;17.90;75.60;;;;;;5078137;28;20092;-72
2023/06/15 03:23:21;;;;;;;4.38;2.50;;;17.90;75.50;;;;;;5077797;28;20383;-72
2023/06/15 03:25:51;;;;;;;3.33;2.30;;;17.90;75.40;;;;;;5077391;28;20020;-72
2023/06/15 03:28:24;;;;;;;7.68;2.50;;;17.90;75.30;;;;;;5077464;28;20031;-71
2023/06/15 03:30:53;;;;;;;3.03;2.10;;;17.90;75.30;;;;;;5077442;28;20032;-72
2023/06/15 03:33:23;;;;;;;3.83;2.38;;;17.80;75.30;;;;;;5077367;28;20028;-73
2023/06/15 03:35:49;;;;;;;3.20;2.53;;;17.80;75.20;;;;;;5077172;28;20072;-73
2023/06/15 03:38:16;;;;;;;2.67;2.10;;;17.80;75.10;;;;;;5077212;28;20035;-72
2023/06/15 03:40:42;;;;;;;4.93;2.42;;;17.70;75.00;;;;;;5077740;28;20361;-73
2023/06/15 03:43:13;;;;;;;2.63;2.38;;;17.80;75.10;;;;;;5077437;28;20075;-73
2023/06/15 03:45:39;;;;;;;3.28;2.40;;;17.70;75.10;;;;;;5077008;28;20036;-72
2023/06/15 03:48:06;;;;;;;2.13;1.95;;;17.80;75.00;;;;;;5077347;28;20386;-73
2023/06/15 03:50:32;;;;;;;4.38;2.03;;;17.80;75.00;;;;;;5059843;28;20020;-72
2023/06/15 03:52:58;;;;;;;4.15;2.13;;;17.80;74.90;;;;;;5077043;28;20489;-73
2023/06/15 03:55:25;;;;;;;4.85;2.30;;;17.90;74.90;;;;;;5077414;28;20024;-72
2023/06/15 03:57:51;;;;;;;4.68;2.47;;;17.90;74.80;;;;;;5076911;28;20021;-72
2023/06/15 04:00:18;;;;;;;3.53;1.80;;;17.90;74.60;;;;;;5077116;28;20020;-72
2023/06/15 04:02:44;;;;;;;2.53;1.80;;;17.90;74.50;;;;;;5077072;28;20066;-73
2023/06/15 04:05:10;;;;;;;3.88;2.08;;;18.00;74.50;;;;;;5076206;28;20024;-72
2023/06/15 04:07:36;;;;;;;3.92;1.90;;;18.00;74.30;;;;;;5076958;28;20025;-72
2023/06/15 04:10:05;;;;;;;3.88;2.00;;;18.10;74.20;;;;;;5076937;28;20469;-73
2023/06/15 04:12:31;;;;;;;3.22;2.00;;;18.20;74.20;;;;;;5076530;28;20021;-71
2023/06/15 04:14:57;;;;;;;1.95;1.70;;;18.30;74.20;;;;;;5076412;28;20349;-72
2023/06/15 04:17:23;;;;;;;2.38;1.58;;;18.40;73.90;;;;;;5076800;28;20036;-72
2023/06/15 04:19:49;;;;;;;3.15;1.70;;;18.40;73.80;;;;;;5076429;28;20056;-72
2023/06/15 04:22:16;;;;;;;3.60;1.73;;;18.50;73.70;;;;;;5076621;28;20040;-72
2023/06/15 04:24:42;;;;;;;2.55;1.63;;;18.60;73.70;;;;;;5076192;28;20043;-72
2023/06/15 04:27:12;;;;;;;3.55;1.85;;;18.70;73.50;;;;;;5076176;28;20025;-72
2023/06/15 04:29:45;;;;;;;2.13;1.92;;;18.90;73.40;;;;;;5077268;28;20055;-72
2023/06/15 04:32:14;;;;;;;2.67;1.80;;;19.00;73.30;;;;;;5076486;28;20052;-72
2023/06/15 04:34:45;;;;;;;1.90;1.70;;;19.20;73.00;;;;;;5075869;28;20072;-72
2023/06/15 04:37:14;;;;;;;1.60;1.50;;;19.40;72.60;;;;;;5076118;28;20044;-72
2023/06/15 04:39:40;;;;;;;2.40;1.92;;;19.60;72.40;;;;;;5076075;28;20108;-72
2023/06/15 04:42:09;;;;;;;3.05;2.00;;;19.80;72.20;;;;;;5076235;28;20032;-72
2023/06/15 04:44:35;;;;;;;2.95;2.13;;;20.10;71.90;;;;;;5058329;28;20391;-72
2023/06/15 04:47:03;;;;;;;2.38;2.10;;;20.40;71.40;;;;;;5075685;28;20035;-72
2023/06/15 04:49:30;;;;;;;2.30;2.10;;;20.70;71.10;;;;;;5076111;28;20016;-72
2023/06/15 04:51:57;;;;;;;3.45;2.00;;;21.20;71.10;;;;;;5075756;28;20038;-72
2023/06/15 04:54:22;;;;;;;5.20;2.50;;;22.10;70.30;;;;;;5076486;28;20028;-72
2023/06/15 04:56:49;;;;;;;3.17;1.88;;;23.20;68.50;;;;;;5075694;28;20024;-72
2023/06/15 04:59:20;;;;;;;4.07;1.83;;;24.30;66.20;;;;;;5075933;28;20059;-72
2023/06/15 05:01:46;;;;;;;1.98;1.63;;;25.30;63.90;;;;;;5076189;28;20028;-72
2023/06/15 05:04:13;;;;;;;4.35;2.10;;;26.40;62.00;;;;;;5075607;28;20024;-72
2023/06/15 05:06:39;;;;;;;2.33;1.85;;;27.40;59.20;;;;;;5075472;28;20434;-72
2023/06/15 05:09:05;;;;;;;2.67;1.80;;;27.90;56.00;;;;;;5075536;28;20437;-72
2023/06/15 05:11:31;;;;;;;4.40;1.75;;;27.90;54.00;;;;;;5075503;28;20036;-72
2023/06/15 05:13:57;;;;;;;1.90;1.60;;;27.40;54.10;;;;;;5075416;28;20028;-72
2023/06/15 05:16:23;;;;;;;3.38;2.00;;;27.10;55.30;;;;;;5075599;28;20357;-72
2023/06/15 05:18:50;;;;;;;2.22;1.50;;;26.90;54.80;;;;;;5074967;28;20032;-72
2023/06/15 05:21:17;;;;;;;4.03;1.80;;;27.20;55.00;;;;;;5057921;28;20431;-72
2023/06/15 05:23:43;;;;;;;5.97;1.80;;;27.90;54.10;;;;;;5075569;28;20029;-72
2023/06/15 05:26:09;;;;;;;2.95;1.90;;;28.60;53.10;;;;;;5075386;28;20342;-72
2023/06/15 05:28:35;;;;;;;2.63;2.00;;;29.60;51.90;;;;;;5075754;28;20035;-72
2023/06/15 05:31:02;;;;;;;3.15;1.80;;;30.70;49.80;;;;;;5075490;28;20028;-72
2023/06/15 05:33:28;;;;;;;2.30;1.85;;;31.70;47.60;;;;;;5058034;28;20095;-72
2023/06/15 05:35:54;;;;;;;1.70;1.60;;;32.80;46.20;;;;;;5075244;28;20135;-72
2023/06/15 05:38:22;;;;;;;1.85;1.73;;;33.80;44.90;;;;;;5057683;28;20139;-72
2023/06/15 05:40:48;;;;;;;1.75;1.65;;;34.80;42.70;;;;;;5057399;28;20043;-72
2023/06/15 05:43:14;;;;;;;1.73;1.50;;;35.70;41.30;;;;;;5075621;28;20025;-72
2023/06/15 05:45:41;;;;;;;2.38;1.83;;;35.90;40.60;;;;;;5075438;28;20427;-72
2023/06/15 05:48:07;;;;;;;2.47;1.70;;;35.30;40.20;;;;;;5057325;28;20025;-72
2023/06/15 05:50:35;;;;;;;1.80;1.60;;;34.30;41.00;;;;;;5075280;28;20035;-72
2023/06/15 05:53:01;;;;;;;2.58;1.60;;;33.20;42.00;;;;;;5075264;28;20148;-72
2023/06/15 05:55:28;;;;;;;4.07;2.10;;;32.10;43.20;;;;;;5075113;28;20442;-72
2023/06/15 05:57:55;;;;;;;3.88;1.90;;;32.10;43.90;;;;;;5074917;28;20116;-73
2023/06/15 06:00:22;;;;;;;2.13;1.90;;;33.00;43.50;;;;;;5075209;28;20024;-72
2023/06/15 06:02:48;;;;;;;1.92;1.80;;;34.30;41.70;;;;;;5075200;28;20047;-72
2023/06/15 06:05:14;;;;;;;6.43;1.83;;;35.60;40.50;;;;;;5074801;28;20021;-73
2023/06/15 06:07:40;;;;;;;2.60;1.90;;;36.80;39.00;;;;;;5075456;28;20021;-73
2023/06/15 06:10:07;;;;;;;2.65;1.70;;;37.90;37.60;;;;;;5074846;28;20017;-73
2023/06/15 06:12:33;;;;;;;3.92;1.80;;;38.80;36.20;;;;;;5075368;28;20024;-71
2023/06/15 06:14:58;;;;;;;2.15;1.95;;;39.60;34.90;;;;;;5059330;28;20108;-72
2023/06/15 06:17:24;;;;;;;3.25;1.80;;;40.20;33.60;;;;;;5076202;28;20085;-72
2023/06/15 06:19:51;;;;;;;2.95;2.03;;;40.80;32.80;;;;;;5075050;28;20025;-72
2023/06/15 06:22:18;;;;;;;2.67;2.08;;;41.30;31.80;;;;;;5074684;28;20055;-72
2023/06/15 06:24:44;;;;;;;3.20;2.10;;;41.70;31.00;;;;;;5074883;28;20040;-72
2023/06/15 06:27:10;;;;;;;2.95;1.88;;;42.00;30.20;;;;;;5074621;28;20028;-72
2023/06/15 06:29:36;;;;;;;2.58;1.85;;;42.40;29.60;;;;;;5077597;28;20388;-72
2023/06/15 06:32:02;;;;;;;3.13;1.80;;;42.90;29.00;;;;;;5078814;28;20032;-72
2023/06/15 06:34:28;;;;;;;2.42;2.03;;;43.30;28.40;;;;;;5078460;28;20049;-72
2023/06/15 06:36:54;;;;;;;3.03;2.30;;;43.40;27.50;;;;;;5078599;28;20025;-72
2023/06/15 06:39:20;;;;;;;2.22;1.90;;;42.70;27.30;;;;;;5078947;28;20028;-72
2023/06/15 06:41:46;;;;;;;2.50;2.20;;;41.20;28.20;;;;;;5078327;28;20077;-72
2023/06/15 06:44:14;;;;;;;4.28;2.17;;;39.70;29.80;;;;;;5060843;28;20407;-72
2023/06/15 06:46:41;;;;;;;2.40;1.92;;;38.40;31.30;;;;;;5078092;28;20048;-72
2023/06/15 06:49:07;;;;;;;4.15;2.30;;;37.00;33.10;;;;;;5060531;28;20027;-72
2023/06/15 06:51:33;;;;;;;3.28;2.47;;;35.80;34.20;;;;;;5078467;28;20025;-72
2023/06/15 06:53:58;;;;;;;4.18;2.38;;;34.80;35.30;;;;;;5078140;28;20052;-72
2023/06/15 06:56:26;;;;;;;2.70;2.10;;;33.90;36.30;;;;;;5078133;28;20051;-72
2023/06/15 06:58:52;;;;;;;4.43;2.10;;;33.20;37.40;;;;;;5077983;28;20073;-72
2023/06/15 07:01:18;;;;;;;5.00;2.28;;;32.80;38.40;;;;;;5078226;28;20023;-72
2023/06/15 07:03:44;;;;;;;3.22;2.15;;;32.40;38.80;;;;;;5078446;28;20028;-72
2023/06/15 07:06:10;;;;;;;2.50;2.30;;;32.30;39.40;;;;;;5077680;28;20029;-72
2023/06/15 07:08:36;;;;;;;3.35;2.53;;;32.20;39.50;;;;;;5060192;28;20025;-72
2023/06/15 07:11:02;;;;;;;3.28;2.40;;;32.00;38.50;;;;;;5078108;28;20021;-73
2023/06/15 07:13:28;;;;;;;3.28;2.30;;;31.80;39.50;;;;;;5077782;28;20036;-71
2023/06/15 07:15:56;;;;;;;4.53;2.40;;;31.50;39.30;;;;;;5078125;28;20024;-71
2023/06/15 07:18:22;;;;;;;3.95;2.30;;;31.30;39.90;;;;;;5077617;28;20033;-72
2023/06/15 07:20:53;;;;;;;3.15;2.38;;;31.20;40.40;;;;;;5059933;28;20028;-71
2023/06/15 07:23:21;;;;;;;3.65;2.30;;;30.90;40.50;;;;;;5077514;28;20135;-72
2023/06/15 07:25:47;;;;;;;4.10;2.47;;;30.60;40.90;;;;;;5077418;28;20024;-72
2023/06/15 07:28:13;;;;;;;2.80;2.50;;;30.50;41.30;;;;;;5077730;28;20032;-72
2023/06/15 07:30:40;;;;;;;2.50;2.30;;;30.40;41.30;;;;;;5077940;28;20031;-72
2023/06/15 07:33:06;;;;;;;2.47;2.15;;;30.30;41.50;;;;;;5077718;28;20016;-72
2023/06/15 07:35:32;;;;;;;4.40;2.70;;;30.20;41.80;;;;;;5077278;28;20431;-72
2023/06/15 07:37:58;;;;;;;4.18;2.40;;;30.20;41.60;;;;;;5077601;28;20107;-72
2023/06/15 07:40:24;;;;;;;4.15;2.00;;;30.10;41.70;;;;;;5077062;28;20105;-72
2023/06/15 07:42:50;;;;;;;3.70;2.25;;;30.00;41.70;;;;;;5077484;28;20024;-72
2023/06/15 07:45:16;;;;;;;3.55;2.30;;;30.00;41.90;;;;;;5077278;28;20107;-72
2023/06/15 07:47:42;;;;;;;3.65;2.90;;;30.00;41.60;;;;;;5077091;28;20040;-73
2023/06/15 07:50:08;;;;;;;4.18;2.97;;;29.90;41.40;;;;;;5077099;28;20020;-72
2023/06/15 07:52:34;;;;;;;4.22;3.47;;;29.70;41.90;;;;;;5076988;28;20028;-72
2023/06/15 07:55:00;;;;;;;5.80;3.33;;;29.50;42.40;;;;;;5076929;28;20024;-72
2023/06/15 07:57:26;;;;;;;5.28;3.38;;;29.30;42.80;;;;;;5077438;28;20077;-72
2023/06/15 07:59:53;;;;;;;3.72;2.85;;;29.00;43.40;;;;;;5076792;28;20119;-72
2023/06/15 08:02:19;;;;;;;5.78;2.92;;;28.80;43.90;;;;;;5076899;28;20021;-72
2023/06/15 08:04:45;;;;;;;4.38;3.00;;;28.80;44.20;;;;;;5076708;28;20070;-72
2023/06/15 08:07:12;;;;;;;5.20;2.72;;;28.90;44.30;;;;;;5076710;28;20025;-72
2023/06/15 08:09:38;;;;;;;4.95;3.50;;;28.90;44.50;;;;;;5076638;28;20025;-72
2023/06/15 08:12:04;;;;;;;4.38;3.33;;;28.90;44.60;;;;;;5077127;28;20430;-72
2023/06/15 08:14:30;;;;;;;7.43;3.70;;;28.90;45.30;;;;;;5076845;28;20017;-73
2023/06/15 08:16:56;;;;;;;4.97;3.70;;;28.60;45.70;;;;;;5076429;28;20146;-72
2023/06/15 08:19:22;;;;;;;3.92;3.50;;;28.50;45.60;;;;;;5076728;28;20077;-71
2023/06/15 08:21:48;;;;;;;5.07;4.13;;;28.40;45.70;;;;;;5076449;28;20113;-71
2023/06/15 08:24:14;;;;;;;5.25;3.67;;;28.20;45.60;;;;;;5076880;28;20079;-72
2023/06/15 08:26:42;;;;;;;4.13;3.33;;;28.20;46.20;;;;;;5076230;28;20525;-72
2023/06/15 08:29:08;;;;;;;4.47;3.47;;;28.10;45.30;;;;;;5077042;28;20418;-72
2023/06/15 08:31:35;;;;;;;6.18;3.08;;;28.10;45.40;;;;;;5076241;28;20023;-72
2023/06/15 08:34:01;;;;;;;7.40;3.70;;;28.00;44.40;;;;;;5075979;28;20048;-72
2023/06/15 08:36:28;;;;;;;3.65;3.13;;;28.00;44.80;;;;;;5076047;28;20088;-72
2023/06/15 08:38:54;;;;;;;5.95;3.70;;;27.90;45.00;;;;;;5076632;28;20086;-72
2023/06/15 08:41:22;;;;;;;5.72;3.63;;;27.90;45.20;;;;;;5076582;28;20450;-73
2023/06/15 08:43:50;;;;;;;8.52;3.75;;;27.80;45.40;;;;;;5075973;28;20020;-72
2023/06/15 08:46:17;;;;;;;6.50;3.90;;;27.80;46.20;;;;;;5075848;28;20074;-72
2023/06/15 08:48:46;;;;;;;5.30;4.10;;;27.80;45.60;;;;;;5075958;28;20075;-72
2023/06/15 08:51:12;;;;;;;4.35;3.65;;;27.80;45.70;;;;;;5076177;28;20025;-72
2023/06/15 08:53:44;;;;;;;6.28;4.20;;;27.80;45.40;;;;;;5074950;28;20021;-72
2023/06/15 08:56:12;;;;;;;5.53;3.92;;;27.80;46.10;;;;;;5075917;28;20025;-72
2023/06/15 08:58:39;;;;;;;5.13;3.80;;;27.90;45.50;;;;;;5076430;28;20021;-73
2023/06/15 09:01:07;;;;;;;5.80;4.32;;;27.90;44.80;;;;;;5076225;28;20141;-72
2023/06/15 09:03:34;;;;;;;5.47;4.22;;;27.80;44.60;;;;;;5075943;28;20458;-73
2023/06/15 09:06:00;;;;;;;7.93;4.50;;;27.70;44.30;;;;;;5075724;28;20028;-72
2023/06/15 09:08:26;;;;;;;6.20;4.75;;;27.70;45.20;;;;;;5076324;28;20111;-72
2023/06/15 09:11:08;;;;;;;5.40;4.18;;;27.80;45.70;;;;;;5076069;28;20174;-72
2023/06/15 09:13:35;;;;;;;8.20;4.22;;;27.80;45.10;;;;;;5058528;28;20098;-72
2023/06/15 09:16:02;;;;;;;5.57;4.38;;;27.80;45.20;;;;;;5075428;28;20063;-73
2023/06/15 09:18:29;;;;;;;8.38;4.40;;;27.80;45.10;;;;;;5075486;28;20025;-72
2023/06/15 09:21:01;;;;;;;7.25;4.28;;;27.70;44.80;;;;;;5075723;28;20116;-71
2023/06/15 09:23:29;;;;;;;6.43;4.75;;;27.80;45.20;;;;;;5075681;28;20138;-71
2023/06/15 09:25:56;;;;;;;7.00;5.10;;;27.70;44.60;;;;;;5075308;28;20028;-71
2023/06/15 09:28:26;;;;;;;8.43;5.07;;;27.70;44.50;;;;;;5075333;28;20461;-73
2023/06/15 09:30:59;;;;;;;5.93;4.78;;;27.60;44.80;;;;;;5075594;28;20016;-70
2023/06/15 09:33:25;;;;;;;5.63;4.43;;;27.70;45.40;;;;;;5075281;28;20073;-74
2023/06/15 09:36:11;;;;;;;7.53;4.88;;;27.70;45.60;;;;;;5075655;28;20048;-72
2023/06/15 09:38:43;;;;;;;5.78;4.53;;;27.80;45.00;;;;;;5075772;28;20032;-72
2023/06/15 09:41:10;;;;;;;8.15;4.57;;;27.80;45.40;;;;;;5075099;28;20032;-72
2023/06/15 09:43:39;;;;;;;6.68;4.72;;;27.90;45.50;;;;;;5075136;28;20032;-72
2023/06/15 09:46:12;;;;;;;8.35;5.55;;;27.90;45.50;;;;;;5075215;28;20032;-72
2023/06/15 09:48:43;;;;;;;8.73;5.07;;;27.90;48.10;;;;;;5075092;28;20024;-72
2023/06/15 09:51:10;;;;;;;7.45;4.75;;;27.70;45.70;;;;;;5075032;28;20024;-73
2023/06/15 09:53:39;;;;;;;8.02;4.82;;;27.70;45.60;;;;;;5075323;28;20104;-72
2023/06/15 09:56:06;;;;;;;6.60;4.72;;;27.70;45.50;;;;;;5075113;28;20345;-73
2023/06/15 09:58:32;;;;;;;7.30;4.75;;;27.60;45.30;;;;;;5074989;28;20499;-73
2023/06/15 10:01:03;;;;;;;8.02;5.25;;;27.50;45.50;;;;;;5074965;28;20107;-72
2023/06/15 10:03:31;;;;;;;8.80;5.25;;;27.40;45.90;;;;;;5075564;28;20039;-73
2023/06/15 10:06:11;;;;;;;6.32;4.85;;;27.40;47.00;;;;;;5078943;28;20031;-73
2023/06/15 10:08:40;;;;;;;7.40;5.22;;;27.40;46.40;;;;;;5079582;28;20024;-71
2023/06/15 10:11:06;;;;;;;7.80;4.93;;;27.30;45.90;;;;;;5078984;28;20149;-73
2023/06/15 10:13:48;;;;;;;6.57;5.03;;;27.20;46.20;;;;;;5078977;28;20379;-73
2023/06/15 10:16:16;;;;;;;8.40;5.13;;;27.30;46.90;;;;;;5078949;28;20039;-72
2023/06/15 10:18:44;;;;;;;6.72;4.75;;;27.10;46.50;;;;;;5079086;28;20032;-72
2023/06/15 10:21:15;;;;;;;6.78;4.65;;;27.20;46.30;;;;;;5061137;28;20032;-72
2023/06/15 10:23:43;;;;;;;8.35;5.18;;;27.20;46.40;;;;;;5079511;28;20048;-72
2023/06/15 10:26:09;;;;;;;6.10;4.80;;;27.30;46.30;;;;;;5061266;28;20028;-73
2023/06/15 10:28:43;;;;;;;7.20;4.82;;;27.30;46.30;;;;;;5078686;28;20029;-73
2023/06/15 10:31:15;;;;;;;9.07;4.75;;;27.40;46.30;;;;;;5061903;28;20067;-73
2023/06/15 10:33:47;;;;;;;5.97;4.47;;;27.50;45.80;;;;;;5079136;28;20037;-72
2023/06/15 10:36:28;;;;;;;7.50;4.82;;;27.60;45.30;;;;;;5078422;28;20536;-71
2023/06/15 10:39:03;;;;;;;10.20;5.22;;;27.40;43.70;;;;;;5078731;28;20038;-72
2023/06/15 10:41:30;;;;;;;7.97;5.45;;;27.40;44.10;;;;;;5078699;28;20028;-72
2023/06/15 10:44:01;;;;;;;7.68;5.25;;;27.10;43.70;;;;;;5078286;28;20031;-72
2023/06/15 10:46:28;;;;;;;8.07;5.13;;;27.00;44.00;;;;;;5078221;28;20025;-72
2023/06/15 10:48:55;;;;;;;7.70;5.20;;;27.10;44.10;;;;;;5078266;28;20099;-72
2023/06/15 10:51:26;;;;;;;8.15;4.43;;;27.10;43.90;;;;;;5078252;28;20028;-73
2023/06/15 10:53:54;;;;;;;8.77;4.82;;;27.10;43.80;;;;;;5078487;28;20039;-73
2023/06/15 10:56:23;;;;;;;5.95;4.18;;;27.20;43.50;;;;;;5078243;28;20025;-73
2023/06/15 10:58:59;;;;;;;5.22;3.88;;;27.20;42.80;;;;;;5061239;28;20116;-73
2023/06/15 11:01:27;;;;;;;4.93;4.00;;;27.20;43.20;;;;;;5077996;28;20351;-73
2023/06/15 11:03:55;;;;;;;5.60;4.22;;;27.20;42.40;;;;;;5077921;28;20029;-73
2023/06/15 11:06:30;;;;;;;6.28;4.95;;;27.20;42.80;;;;;;5078339;28;20056;-73
2023/06/15 11:09:04;;;;;;;6.70;4.78;;;27.30;43.10;;;;;;5078497;28;20099;-72
2023/06/15 11:11:38;;;;;;;8.90;5.18;;;27.40;43.60;;;;;;5078168;28;20042;-73
2023/06/15 11:14:06;;;;;;;9.38;5.68;;;27.40;43.00;;;;;;5078361;28;20027;-73
2023/06/15 11:16:35;;;;;;;7.68;5.05;;;27.40;43.10;;;;;;5076812;28;20028;-73
2023/06/15 11:19:13;;;;;;;7.15;4.63;;;27.40;43.10;;;;;;5060054;28;20052;-73
2023/06/15 11:21:50;;;;;;;9.32;5.38;;;27.40;42.90;;;;;;5059987;28;20051;-72
2023/06/15 11:24:19;;;;;;;8.82;5.50;;;27.40;44.70;;;;;;5077539;28;20335;-72
2023/06/15 11:26:48;;;;;;;8.32;4.80;;;27.50;44.10;;;;;;5059595;28;20119;-73
2023/06/15 11:29:22;;;;;;;4.85;3.97;;;27.50;44.00;;;;;;5077443;28;20028;-72
2023/06/15 11:31:52;;;;;;;8.85;4.57;;;27.70;43.90;;;;;;5077471;28;20465;-72
2023/06/15 11:34:18;;;;;;;6.47;4.40;;;27.80;43.10;;;;;;5077490;28;20045;-72
2023/06/15 11:36:45;;;;;;;5.65;4.20;;;27.80;42.60;;;;;;5077296;28;20040;-72
2023/06/15 11:39:21;;;;;;;5.68;4.20;;;27.80;42.70;;;;;;5077585;28;20075;-71
2023/06/15 11:41:50;;;;;;;9.77;4.57;;;27.80;42.70;;;;;;5059608;28;20039;-72
2023/06/15 11:44:23;;;;;;;6.22;4.32;;;27.90;43.10;;;;;;5077803;28;20051;-73
2023/06/15 11:46:53;;;;;;;8.90;5.18;;;28.00;43.10;;;;;;5077055;28;20151;-72
2023/06/15 11:49:20;;;;;;;7.60;4.70;;;28.10;42.70;;;;;;5059506;28;20154;-72
2023/06/15 11:51:47;;;;;;;6.05;4.68;;;28.20;42.90;;;;;;5077308;28;20058;-72
2023/06/15 11:54:14;;;;;;;7.35;4.57;;;28.20;42.10;;;;;;5077265;28;20032;-72
2023/06/15 11:56:45;;;;;;;6.28;4.60;;;28.20;41.80;;;;;;5076868;28;20101;-72
2023/06/15 11:59:17;;;;;;;7.28;4.70;;;28.10;42.70;;;;;;5076964;28;20021;-72
2023/06/15 12:01:43;;;;;;;6.47;4.80;;;28.10;42.90;;;;;;5076875;28;20374;-73
2023/06/15 12:04:12;;;;;;;5.45;4.70;;;28.20;42.80;;;;;;5077133;28;20031;-72
2023/06/15 12:06:39;;;;;;;9.13;5.80;;;28.20;42.80;;;;;;5059025;28;20354;-72
2023/06/15 12:09:07;;;;;;;8.13;4.68;;;28.10;42.00;;;;;;5076711;28;20024;-72
2023/06/15 12:11:33;;;;;;;5.70;4.63;;;28.00;43.00;;;;;;5076603;28;20032;-72
2023/06/15 12:14:01;;;;;;;7.03;4.72;;;28.10;43.20;;;;;;5059543;28;20032;-72
2023/06/15 12:16:30;;;;;;;6.32;4.53;;;28.20;43.20;;;;;;5076560;28;20032;-72
2023/06/15 12:19:00;;;;;;;5.80;4.10;;;28.20;43.10;;;;;;5076847;28;20417;-72
2023/06/15 12:21:29;;;;;;;7.30;4.53;;;28.30;43.10;;;;;;5076793;28;20032;-72
2023/06/15 12:23:56;;;;;;;7.65;4.70;;;28.40;43.40;;;;;;5076751;28;20036;-72
2023/06/15 12:26:22;;;;;;;7.50;5.40;;;28.40;43.80;;;;;;5076105;28;20098;-72
2023/06/15 12:28:50;;;;;;;7.63;4.75;;;28.50;43.60;;;;;;5076345;28;20026;-72
2023/06/15 12:31:17;;;;;;;7.53;5.13;;;28.50;43.40;;;;;;5076300;28;20025;-72
2023/06/15 12:33:43;;;;;;;7.15;5.82;;;28.50;43.10;;;;;;5076103;28;20082;-72
2023/06/15 12:36:14;;;;;;;7.72;5.03;;;28.50;44.30;;;;;;5076153;28;20461;-72
2023/06/15 12:38:42;;;;;;;7.30;5.10;;;28.40;44.30;;;;;;5058904;28;20067;-72
2023/06/15 12:41:16;;;;;;;7.85;4.90;;;28.40;44.00;;;;;;5042067;28;20040;-72
2023/06/15 12:43:45;;;;;;;6.85;4.95;;;28.30;43.50;;;;;;5076578;28;20041;-72
2023/06/15 12:46:11;;;;;;;7.32;5.25;;;28.40;43.90;;;;;;5075877;28;20104;-73
2023/06/15 12:48:43;;;;;;;8.23;5.30;;;28.30;43.70;;;;;;5076498;28;20024;-73
2023/06/15 12:51:09;;;;;;;8.20;5.35;;;28.30;43.70;;;;;;5076457;28;20028;-72